Time;durP1;ratioP1;P1;durP2;ratioP2;P2;SDS_P1;SDS_P2;PMS_P1;PMS_P2;Temp;Humidity;BMP_temperature;BMP_pressure;BME280_temperature;BME280_humidity;BME280_pressure;Samples;Min_cycle;Max_cycle;Signal;HPM_P1;HPM_P2
2022/01/13 00:00:29;;;;;;;;;19.75;19.00;;;;;4.22;76.22;102068.09;5097045;27;45528;-74
2022/01/13 00:02:54;;;;;;;;;14.00;12.75;;;;;4.28;76.22;102067.69;5096121;27;45415;-78
2022/01/13 00:05:26;;;;;;;;;19.00;15.25;;;;;4.33;76.14;102082.78;5097321;27;45437;-76
2022/01/13 00:07:55;;;;;;;;;14.75;12.75;;;;;4.25;75.91;102068.31;5113247;27;45337;-74
2022/01/13 00:10:22;;;;;;;;;16.75;14.75;;;;;4.09;76.08;102054.97;5095445;27;45563;-80
2022/01/13 00:12:56;;;;;;;;;18.75;17.75;;;;;4.05;76.81;102071.00;5096923;27;45489;-78
2022/01/13 00:18:01;;;;;;;;;30.00;29.00;;;;;3.94;76.39;102065.88;5096890;27;45924;-76
2022/01/13 00:20:59;;;;;;;;;26.75;22.00;;;;;3.81;76.76;102055.31;5095165;27;45500;-76
2022/01/13 00:26:18;;;;;;;;;34.50;27.75;;;;;3.85;77.19;102080.63;5094962;27;45311;-81
2022/01/13 00:28:48;;;;;;;;;22.00;21.00;;;;;3.95;76.72;102077.13;5094085;27;45668;-82
2022/01/13 00:31:17;;;;;;;;;18.00;14.50;;;;;3.89;76.21;102068.88;5095165;27;45518;-80
2022/01/13 00:33:45;;;;;;;;;20.75;18.00;;;;;4.01;76.25;102092.22;5096672;27;45420;-78
2022/01/13 00:36:12;;;;;;;;;21.25;19.00;;;;;3.97;75.60;102081.63;5095751;27;45418;-76
2022/01/13 00:38:37;;;;;;;;;18.00;18.00;;;;;3.87;76.81;102079.06;5095166;27;45429;-78
2022/01/13 00:41:03;;;;;;;;;15.50;15.25;;;;;3.81;77.88;102080.28;5096519;27;45429;-81
2022/01/13 00:43:29;;;;;;;;;9.75;9.75;;;;;3.68;77.66;102058.59;5095355;27;45529;-79
2022/01/13 00:45:55;;;;;;;;;16.75;16.25;;;;;3.58;77.99;102045.66;5096930;27;45435;-81
2022/01/13 00:48:21;;;;;;;;;14.25;14.00;;;;;3.56;77.78;102054.97;5096243;27;45535;-81
2022/01/13 00:50:48;;;;;;;;;15.50;13.25;;;;;3.46;77.59;102049.81;5096362;27;45677;-77
2022/01/13 00:53:13;;;;;;;;;18.50;14.50;;;;;3.60;77.15;102077.69;5097693;27;45511;-76
2022/01/13 00:58:12;;;;;;;;;9.75;8.75;;;;;3.59;77.41;102076.81;5098244;27;45515;-82
2022/01/13 01:00:37;;;;;;;;;10.75;9.25;;;;;3.62;78.14;102078.75;5096046;27;45354;-81
2022/01/13 01:03:03;;;;;;;;;9.75;9.00;;;;;3.55;77.50;102064.41;5096424;27;45360;-76
2022/01/13 01:05:29;;;;;;;;;10.00;9.00;;;;;3.68;77.80;102065.41;5095111;27;45678;-81
2022/01/13 01:07:55;;;;;;;;;8.00;7.00;;;;;3.72;77.97;102064.88;5094266;27;45415;-75
2022/01/13 01:10:22;;;;;;;;;11.25;8.50;;;;;3.75;77.17;102078.97;5095719;27;45373;-82
2022/01/13 01:12:47;;;;;;;;;12.50;11.50;;;;;3.32;76.63;102009.94;5094915;27;45331;-75
2022/01/13 01:15:13;;;;;;;;;15.00;11.50;;;;;3.61;76.27;102064.03;5094940;27;45222;-76
2022/01/13 01:17:45;;;;;;;;;17.00;16.50;;;;;3.68;76.33;102076.69;5095966;27;45263;-76
2022/01/13 01:20:11;;;;;;;;;18.75;15.25;;;;;3.49;76.34;102056.16;5094897;27;45515;-82
2022/01/13 01:27:42;;;;;;;;;25.00;22.75;;;;;3.39;76.75;102066.50;5095812;27;45603;-76
2022/01/13 01:30:22;;;;;;;;;14.00;10.75;;;;;3.31;77.04;102073.63;5095530;27;45386;-76
2022/01/13 01:32:48;;;;;;;;;10.50;10.00;;;;;3.12;76.89;102053.13;5096082;27;45349;-80
2022/01/13 01:35:16;;;;;;;;;17.25;12.00;;;;;2.79;77.95;102003.00;5094869;27;45615;-77
2022/01/13 01:37:43;;;;;;;;;14.50;13.00;;;;;3.12;77.76;102076.34;5095773;27;46148;-76
2022/01/13 01:40:11;;;;;;;;;17.50;14.50;;;;;2.90;77.94;102046.91;5095823;27;45467;-78
2022/01/13 01:42:38;;;;;;;;;18.50;16.25;;;;;2.91;78.06;102065.09;5095913;27;45519;-77
2022/01/13 01:45:07;;;;;;;;;15.00;15.00;;;;;2.92;78.14;102073.75;5109056;27;45578;-75
2022/01/13 01:47:33;;;;;;;;;15.00;13.25;;;;;2.78;78.31;102059.66;5094240;27;47926;-80
2022/01/13 01:50:11;;;;;;;;;13.00;13.00;;;;;2.78;78.62;102072.56;5095581;27;45437;-75
2022/01/13 01:52:38;;;;;;;;;16.25;13.50;;;;;2.73;78.73;102072.19;5096031;27;45478;-81
2022/01/13 01:55:05;;;;;;;;;15.00;13.00;;;;;2.72;78.81;102084.94;5094469;27;45436;-82
2022/01/13 01:57:31;;;;;;;;;12.75;12.50;;;;;2.63;79.08;102071.25;5095327;27;46305;-75
2022/01/13 01:59:57;;;;;;;;;14.00;13.00;;;;;2.56;78.32;102069.81;5095447;27;45513;-75
2022/01/13 02:02:25;;;;;;;;;16.75;15.75;;;;;2.52;77.99;102066.06;5094569;27;45461;-75
2022/01/13 02:04:50;;;;;;;;;14.00;13.00;;;;;2.44;78.45;102055.84;5095872;27;45421;-75
2022/01/13 02:07:16;;;;;;;;;18.00;13.00;;;;;2.66;79.05;102102.47;5095197;27;46064;-78
2022/01/13 02:09:44;;;;;;;;;12.00;12.00;;;;;2.67;78.89;102097.44;5095365;27;45637;-75
2022/01/13 02:12:15;;;;;;;;;13.00;12.25;;;;;2.13;78.40;102020.56;5095602;27;45385;-77
2022/01/13 02:14:55;;;;;;;;;14.00;12.00;;;;;2.41;78.09;102071.97;5095437;27;45521;-75
2022/01/13 02:17:24;;;;;;;;;12.00;12.00;;;;;2.41;77.92;102102.00;5095476;27;45571;-81
2022/01/13 02:19:52;;;;;;;;;13.00;12.75;;;;;2.31;78.34;102097.75;5097488;27;45575;-79
2022/01/13 02:22:18;;;;;;;;;15.75;15.75;;;;;2.21;78.55;102097.66;5098838;27;45506;-79
2022/01/13 02:24:43;;;;;;;;;17.50;16.75;;;;;2.26;78.91;102117.94;5114765;27;45687;-82
2022/01/13 02:27:09;;;;;;;;;16.75;14.25;;;;;2.14;78.98;102099.72;5098654;27;45929;-80
2022/01/13 02:29:35;;;;;;;;;10.50;9.00;;;;;2.20;77.33;102114.81;5098629;27;45422;-80
2022/01/13 02:32:02;;;;;;;;;16.50;11.00;;;;;2.11;79.09;102116.56;5098730;27;45464;-75
2022/01/13 02:34:28;;;;;;;;;13.00;12.25;;;;;2.06;79.69;102104.97;5098409;27;45580;-81
2022/01/13 02:36:56;;;;;;;;;13.25;12.00;;;;;2.01;79.50;102117.44;5098428;27;46044;-82
2022/01/13 02:39:23;;;;;;;;;12.00;11.50;;;;;1.94;79.47;102104.78;5098335;27;45349;-81
2022/01/13 02:41:49;;;;;;;;;12.00;12.00;;;;;1.95;80.03;102115.22;5098544;27;45482;-80
2022/01/13 02:44:18;;;;;;;;;12.00;11.25;;;;;1.92;79.73;102114.94;5097555;27;45485;-81
2022/01/13 02:49:15;;;;;;;;;16.00;11.50;;;;;1.68;79.68;102077.56;5098383;27;45597;-76
2022/01/13 02:51:43;;;;;;;;;14.00;11.25;;;;;1.86;79.72;102108.34;5098275;27;45602;-82
2022/01/13 02:54:10;;;;;;;;;15.25;12.25;;;;;1.65;80.04;102069.59;5097253;27;45403;-82
2022/01/13 02:56:37;;;;;;;;;11.75;11.25;;;;;1.74;79.71;102079.78;5097883;27;45389;-77
2022/01/13 02:59:05;;;;;;;;;19.00;13.25;;;;;1.77;80.13;102091.28;5098023;27;45592;-82
2022/01/13 03:01:31;;;;;;;;;14.75;12.00;;;;;1.73;79.78;102094.34;5098052;27;45483;-82
2022/01/13 03:03:59;;;;;;;;;10.00;8.50;;;;;1.66;79.95;102091.97;5098771;27;45616;-79
2022/01/13 03:06:34;;;;;;;;;10.25;8.00;;;;;1.57;79.94;102079.19;5111583;27;45695;-82
2022/01/13 03:09:00;;;;;;;;;10.50;10.50;;;;;1.60;80.25;102091.44;5098046;27;45453;-81
2022/01/13 03:11:33;;;;;;;;;15.75;11.75;;;;;1.34;79.95;102051.34;5114353;27;45368;-78
2022/01/13 03:13:59;;;;;;;;;13.50;11.00;;;;;1.60;80.72;102091.44;5098213;27;45467;-78
2022/01/13 03:16:25;;;;;;;;;12.00;9.00;;;;;1.61;80.60;102092.31;5096902;27;45483;-75
2022/01/13 03:18:51;;;;;;;;;9.50;8.25;;;;;1.62;80.84;102081.28;5096531;27;45525;-76
2022/01/13 03:21:17;;;;;;;;;6.25;5.25;;;;;1.57;80.51;102065.38;5098086;27;45564;-82
2022/01/13 03:23:43;;;;;;;;;8.50;6.50;;;;;1.61;80.95;102064.88;5096709;27;45695;-80
2022/01/13 03:26:08;;;;;;;;;8.75;8.75;;;;;1.50;80.71;102030.44;5096457;27;46835;-77
2022/01/13 03:29:15;;;;;;;;;9.50;8.00;;;;;1.62;80.25;102056.41;5096173;27;45522;-81
2022/01/13 03:31:25;;;;;;;;;8.00;6.25;;;;;1.65;80.57;102054.13;5092837;27;45246;-81
2022/01/13 03:33:53;;;;;;;;;11.50;9.00;;;;;1.63;80.59;102049.56;5097163;27;45382;-81
2022/01/13 03:36:18;;;;;;;;;10.75;8.75;;;;;1.56;80.56;102042.97;5099207;27;45613;-80
2022/01/13 03:38:44;;;;;;;;;15.75;8.50;;;;;1.66;80.17;102065.31;5099229;27;45490;-81
2022/01/13 03:41:10;;;;;;;;;9.00;8.00;;;;;1.65;80.50;102069.59;5099419;27;45449;-74
2022/01/13 03:43:37;;;;;;;;;9.75;8.75;;;;;1.49;80.62;102044.13;5099078;27;45534;-78
2022/01/13 03:46:07;;;;;;;;;10.25;9.00;;;;;1.47;80.92;102037.88;5099183;27;46196;-78
2022/01/13 03:48:33;;;;;;;;;10.00;8.50;;;;;1.62;80.43;102068.41;5099209;27;45321;-78
2022/01/13 03:50:59;;;;;;;;;19.25;15.50;;;;;1.46;80.01;102040.34;5098036;27;45370;-75
2022/01/13 03:53:28;;;;;;;;;11.00;8.50;;;;;1.59;80.08;102064.78;5098225;27;45461;-82
2022/01/13 03:56:40;;;;;;;;;5.00;4.75;;;;;1.48;80.11;102050.00;5097530;27;46446;-80
2022/01/13 03:59:33;;;;;;;;;8.50;6.25;;;;;1.53;80.15;102066.78;5098970;27;45471;-82
2022/01/13 04:02:13;;;;;;;;;8.00;6.25;;;;;1.53;80.83;102065.88;5097832;27;45295;-74
2022/01/13 04:04:57;;;;;;;;;5.00;5.00;;;;;1.47;79.96;102049.88;5097575;27;45485;-80
2022/01/13 04:07:24;;;;;;;;;6.75;6.75;;;;;1.52;80.56;102061.50;5098660;27;46467;-81
2022/01/13 04:09:50;;;;;;;;;4.75;4.25;;;;;1.49;80.89;102062.13;5098642;27;45752;-76
2022/01/13 04:12:19;;;;;;;;;5.00;5.00;;;;;1.35;81.01;102042.84;5098759;27;45435;-78
2022/01/13 04:14:48;;;;;;;;;7.00;5.25;;;;;1.30;80.10;102036.38;5099074;27;45305;-81
2022/01/13 04:17:17;;;;;;;;;7.00;5.50;;;;;1.43;80.93;102055.50;5098700;27;45436;-76
2022/01/13 04:19:43;;;;;;;;;11.25;8.00;;;;;1.37;81.08;102059.34;5083234;27;45363;-78
2022/01/13 04:22:10;;;;;;;;;9.25;7.75;;;;;1.44;81.36;102072.78;5102243;27;45249;-81
2022/01/13 04:24:37;;;;;;;;;13.25;12.50;;;;;1.46;81.50;102068.69;5097340;27;45596;-75
2022/01/13 04:27:03;;;;;;;;;18.00;17.00;;;;;1.30;81.21;102038.06;5096970;27;46959;-74
2022/01/13 04:29:41;;;;;;;;;5.75;4.75;;;;;1.47;81.22;102063.63;5098942;27;45451;-80
2022/01/13 04:32:07;;;;;;;;;7.75;5.25;;;;;1.49;81.19;102061.22;5098471;27;45347;-80
2022/01/13 04:34:34;;;;;;;;;5.75;5.00;;;;;1.37;81.11;102049.06;5097259;27;45601;-74
2022/01/13 04:37:01;;;;;;;;;8.50;8.00;;;;;1.48;81.37;102069.72;5106484;27;47903;-77
2022/01/13 04:39:28;;;;;;;;;4.00;4.00;;;;;1.29;80.83;102042.28;5116804;27;45215;-74
2022/01/13 04:41:55;;;;;;;;;6.00;5.00;;;;;1.38;80.69;102062.81;5115715;27;45476;-75
2022/01/13 04:44:23;;;;;;;;;8.75;6.50;;;;;1.34;80.80;102060.75;5117626;27;44799;-76
2022/01/13 04:46:53;;;;;;;;;8.50;8.50;;;;;1.29;81.31;102049.09;5116627;27;45388;-75
2022/01/13 04:49:19;;;;;;;;;15.00;13.75;;;;;1.25;80.92;102050.47;5113078;27;44892;-75
2022/01/13 04:51:49;;;;;;;;;12.00;9.00;;;;;1.30;81.23;102048.34;5097545;27;45349;-80
2022/01/13 04:54:15;;;;;;;;;11.25;9.00;;;;;1.22;81.17;102031.31;5097309;27;45426;-76
2022/01/13 04:57:04;;;;;;;;;46.00;36.00;;;;;1.23;81.10;102038.25;5096989;27;45559;-82
2022/01/13 04:59:27;;;;;;;;;8.00;7.00;;;;;1.13;80.79;102008.19;5096799;27;45582;-76
2022/01/13 05:01:52;;;;;;;;;11.00;8.75;;;;;1.30;80.86;102048.34;5096495;27;45391;-74
2022/01/13 05:04:18;;;;;;;;;8.25;8.25;;;;;1.19;80.72;102035.41;5095518;27;45325;-80
2022/01/13 05:06:44;;;;;;;;;16.50;15.75;;;;;1.06;80.64;102023.84;5096075;27;45587;-74
2022/01/13 05:09:09;;;;;;;;;15.50;11.50;;;;;1.17;80.53;102054.97;5095895;27;45428;-74
2022/01/13 05:11:35;;;;;;;;;13.75;12.25;;;;;0.94;80.75;102021.06;5094658;27;45492;-82
2022/01/13 05:14:00;;;;;;;;;10.50;5.75;;;;;0.97;80.10;102042.81;5095424;27;45473;-74
2022/01/13 05:16:50;;;;;;;;;7.75;7.75;;;;;1.05;80.13;102063.19;5095925;27;45479;-74
2022/01/13 05:19:18;;;;;;;;;10.50;7.50;;;;;0.93;80.93;102052.69;5093697;27;45530;-79
2022/01/13 05:24:18;;;;;;;;;8.00;8.00;;;;;0.94;81.23;102062.22;5096216;27;45607;-74
2022/01/13 05:26:44;;;;;;;;;11.00;10.00;;;;;0.85;81.73;102053.63;5095926;27;45853;-74
2022/01/13 05:29:12;;;;;;;;;15.00;14.50;;;;;0.87;81.61;102054.69;5094642;27;45243;-73
2022/01/13 05:31:37;;;;;;;;;11.00;9.00;;;;;0.84;81.18;102050.16;5094763;27;45345;-79
2022/01/13 05:34:03;;;;;;;;;28.00;23.25;;;;;0.92;81.55;102058.59;5094772;27;45362;-80
2022/01/13 05:36:28;;;;;;;;;12.50;11.00;;;;;0.83;81.35;102043.19;5094550;27;45666;-80
2022/01/13 05:38:54;;;;;;;;;9.50;9.25;;;;;0.93;81.69;102063.88;5095963;27;45578;-76
2022/01/13 05:41:20;;;;;;;;;11.00;8.75;;;;;0.82;81.39;102049.13;5095909;27;45480;-77
2022/01/13 05:43:45;;;;;;;;;11.50;11.25;;;;;0.82;81.30;102051.69;5111629;27;45470;-82
2022/01/13 05:46:11;;;;;;;;;6.50;5.00;;;;;0.90;80.91;102063.59;5095214;27;45492;-79
2022/01/13 05:48:36;;;;;;;;;17.50;11.25;;;;;0.76;80.82;102049.44;5111112;27;45921;-78
2022/01/13 05:51:02;;;;;;;;;7.00;5.00;;;;;0.86;81.03;102069.22;5094873;27;45953;-80
2022/01/13 05:53:27;;;;;;;;;9.25;8.00;;;;;0.81;80.63;102067.88;5096668;27;45578;-75
2022/01/13 05:55:53;;;;;;;;;7.75;7.00;;;;;0.75;80.99;102063.06;5097659;27;45558;-75
2022/01/13 05:58:18;;;;;;;;;7.00;7.00;;;;;0.72;80.70;102052.50;5097814;27;45536;-79
2022/01/13 06:00:44;;;;;;;;;89.67;69.67;;;;;0.81;81.09;102074.69;5097482;27;45368;-74
2022/01/13 06:03:10;;;;;;;;;9.25;8.00;;;;;0.80;80.76;102068.66;5099214;27;45219;-75
2022/01/13 06:05:37;;;;;;;;;10.75;9.25;;;;;0.69;81.18;102054.78;5099079;27;45371;-75
2022/01/13 06:08:03;;;;;;;;;14.50;13.25;;;;;0.71;81.23;102067.78;5099807;27;45836;-74
2022/01/13 06:10:29;;;;;;;;;92.67;74.33;;;;;0.63;81.57;102054.19;5097912;27;45429;-76
2022/01/13 06:12:54;;;;;;;;;12.75;11.25;;;;;0.66;81.48;102064.78;5099250;27;45459;-79
2022/01/13 06:15:23;;;;;;;;;11.00;11.00;;;;;0.78;81.46;102096.81;5098568;27;45994;-74
2022/01/13 06:17:51;;;;;;;;;16.00;13.00;;;;;0.78;81.49;102094.22;5097734;27;45729;-82
2022/01/13 06:20:19;;;;;;;;;13.50;11.00;;;;;0.72;81.36;102079.91;5097260;27;45551;-79
2022/01/13 06:22:46;;;;;;;;;14.50;8.25;;;;;0.72;81.40;102082.47;5098969;27;45775;-74
2022/01/13 06:25:13;;;;;;;;;43.25;39.50;;;;;0.75;81.46;102099.06;5097257;27;47124;-77
2022/01/13 06:27:39;;;;;;;;;17.00;16.00;;;;;0.75;81.52;102104.22;5098836;27;45625;-78
2022/01/13 06:30:08;;;;;;;;;28.00;25.50;;;;;0.74;81.35;102093.81;5098663;27;45540;-74
2022/01/13 06:32:34;;;;;;;;;33.75;31.00;;;;;0.64;81.52;102070.53;5098979;27;45515;-73
2022/01/13 06:34:59;;;;;;;;;38.50;35.25;;;;;0.57;81.50;102069.06;5098708;27;45512;-79
2022/01/13 06:37:25;;;;;;;;;37.75;33.75;;;;;0.72;81.18;102090.19;5098309;27;45538;-74
2022/01/13 06:39:50;;;;;;;;;70.00;54.00;;;;;0.51;81.15;102059.09;5097051;27;45431;-74
2022/01/13 06:42:17;;;;;;;;;57.50;47.75;;;;;0.63;81.47;102073.88;5097715;27;45493;-73
2022/01/13 06:44:43;;;;;;;;;22.25;18.75;;;;;0.52;81.60;102052.31;5098672;27;45519;-78
2022/01/13 06:47:09;;;;;;;;;19.75;18.50;;;;;0.70;80.94;102089.13;5114572;27;45444;-79
2022/01/13 06:49:36;;;;;;;;;27.50;24.75;;;;;0.57;81.13;102077.66;5098531;27;45533;-77
2022/01/13 06:52:02;;;;;;;;;25.00;22.25;;;;;0.58;81.10;102082.06;5114795;27;45508;-81
2022/01/13 06:54:28;;;;;;;;;23.75;21.50;;;;;0.55;81.10;102074.03;5113642;27;46346;-78
2022/01/13 06:56:54;;;;;;;;;33.75;32.00;;;;;0.65;80.96;102098.06;5096768;27;45424;-75
2022/01/13 06:59:20;;;;;;;;;17.75;16.75;;;;;0.56;80.92;102075.88;5098609;27;45386;-78
2022/01/13 07:01:47;;;;;;;;;19.25;16.00;;;;;0.59;80.69;102086.44;5098654;27;45410;-80
2022/01/13 07:04:14;;;;;;;;;9.50;9.50;;;;;0.47;80.91;102076.66;5095601;27;45461;-76
2022/01/13 07:06:41;;;;;;;;;14.50;9.75;;;;;0.57;80.71;102087.94;5098061;27;45479;-77
2022/01/13 07:09:13;;;;;;;;;11.25;10.00;;;;;0.39;80.94;102058.84;5097879;27;45571;-80
2022/01/13 07:11:39;;;;;;;;;28.50;23.75;;;;;0.53;80.92;102093.56;5095830;27;45316;-80
2022/01/13 07:14:06;;;;;;;;;50.50;42.25;;;;;0.42;80.81;102077.88;5097904;27;45937;-75
2022/01/13 07:16:32;;;;;;;;;48.50;41.75;;;;;0.33;80.77;102065.97;5096886;27;45330;-73
2022/01/13 07:18:58;;;;;;;;;45.75;39.50;;;;;0.28;81.31;102058.56;5098088;27;45419;-78
2022/01/13 07:21:26;;;;;;;;;38.75;32.00;;;;;0.51;81.04;102099.34;5098143;27;45510;-74
2022/01/13 07:23:52;;;;;;;;;25.00;21.00;;;;;0.51;80.96;102101.91;5096359;27;48006;-77
2022/01/13 07:26:18;;;;;;;;;30.50;26.00;;;;;0.44;81.29;102087.56;5095968;27;45593;-81
2022/01/13 07:28:43;;;;;;;;;24.25;21.75;;;;;0.12;80.78;102040.78;5096194;27;45469;-73
2022/01/13 07:31:09;;;;;;;;;36.50;30.00;;;;;0.02;80.91;102021.03;5097790;27;45530;-74
2022/01/13 07:33:35;;;;;;;;;34.75;28.00;;;;;0.39;80.35;102097.41;5097452;27;45455;-75
2022/01/13 07:36:00;;;;;;;;;22.25;19.25;;;;;0.41;80.46;102107.84;5097911;27;45401;-75
2022/01/13 07:38:26;;;;;;;;;26.00;17.25;;;;;0.35;80.41;102078.97;5097616;27;45449;-78
2022/01/13 07:40:52;;;;;;;;;24.25;21.50;;;;;0.46;79.78;102106.63;5096442;27;45630;-75
2022/01/13 07:43:22;;;;;;;;;40.50;32.25;;;;;0.39;80.24;102097.41;5097320;27;46091;-80
2022/01/13 07:45:52;;;;;;;;;20.50;17.25;;;;;0.31;80.17;102082.91;5098872;27;45361;-80
2022/01/13 07:48:18;;;;;;;;;11.75;10.50;;;;;0.13;80.01;102058.03;5095982;27;45356;-74
2022/01/13 07:50:44;;;;;;;;;14.25;14.00;;;;;0.50;80.61;102115.53;5097405;27;45361;-74
2022/01/13 07:53:10;;;;;;;;;27.00;24.25;;;;;0.47;80.08;102094.66;5096840;27;46772;-75
2022/01/13 07:55:37;;;;;;;;;47.00;37.50;;;;;0.45;80.10;102094.50;5094345;27;45503;-79
2022/01/13 07:58:03;;;;;;;;;24.25;18.50;;;;;0.53;80.24;102106.44;5097791;27;45366;-81
2022/01/13 08:00:29;;;;;;;;;33.00;27.25;;;;;0.63;80.24;102120.16;5097832;27;45420;-76
2022/01/13 08:02:54;;;;;;;;;46.00;37.00;;;;;0.64;80.15;102115.19;5095574;27;46779;-78
2022/01/13 08:05:20;;;;;;;;;27.00;23.50;;;;;0.68;80.44;102113.81;5097084;27;45494;-74
2022/01/13 08:07:46;;;;;;;;;28.25;27.75;;;;;0.62;80.21;102097.75;5097048;27;45265;-80
2022/01/13 08:10:13;;;;;;;;;38.50;28.75;;;;;0.57;79.74;102087.94;5098526;27;45599;-75
2022/01/13 08:12:39;;;;;;;;;84.75;65.50;;;;;0.47;79.97;102069.84;5098435;27;45777;-77
2022/01/13 08:15:12;;;;;;;;;93.33;70.33;;;;;0.69;79.35;102102.75;5098468;27;45453;-74
2022/01/13 08:20:40;;;;;;;;;42.75;33.25;;;;;0.75;79.20;102122.22;5055379;28;45522;-74
2022/01/13 08:23:06;;;;;;;;;71.00;51.50;;;;;0.62;79.13;102110.63;5089115;27;46167;-79
2022/01/13 08:25:32;;;;;;;;;124.00;102.33;;;;;0.65;79.52;102118.66;5090343;27;45417;-80
2022/01/13 08:27:58;;;;;;;;;104.00;79.67;;;;;0.76;79.72;102130.88;5095052;27;45689;-82
2022/01/13 08:30:24;;;;;;;;;14.00;12.75;;;;;0.81;79.53;102132.19;5096318;27;45576;-77
2022/01/13 08:32:50;;;;;;;;;54.00;45.75;;;;;0.86;79.57;102128.41;5096969;27;45686;-80
2022/01/13 08:35:15;;;;;;;;;12.00;12.00;;;;;0.81;79.78;102109.03;5095763;27;45528;-84
2022/01/13 08:37:41;;;;;;;;;85.00;68.00;;;;;0.80;80.23;102096.94;5095605;27;45444;-83
2022/01/13 08:40:10;;;;;;;;;55.00;46.00;;;;;1.02;80.41;102132.41;5095602;27;45576;-79
2022/01/13 08:42:36;;;;;;;;;55.75;47.25;;;;;1.16;80.23;102132.03;5096906;27;45390;-76
2022/01/13 08:45:04;;;;;;;;;76.25;60.00;;;;;1.27;80.02;102127.88;5097032;27;45564;-83
2022/01/13 08:47:30;;;;;;;;;66.00;53.00;;;;;1.21;79.95;102107.59;5090186;27;45493;-75
2022/01/13 08:49:56;;;;;;;;;51.75;44.75;;;;;1.48;79.67;102134.09;5077128;27;45675;-80
2022/01/13 08:52:22;;;;;;;;;56.50;47.25;;;;;1.51;79.27;102130.16;5076879;27;45480;-84
2022/01/13 08:54:47;;;;;;;;;73.25;57.50;;;;;1.52;78.41;102119.06;5076910;28;45545;-84
2022/01/13 08:57:13;;;;;;;;;73.50;60.00;;;;;1.73;78.75;102138.16;5076779;28;45374;-84
2022/01/13 08:59:39;;;;;;;;;51.00;44.25;;;;;1.74;78.30;102118.44;5076876;27;45571;-79
2022/01/13 09:02:05;;;;;;;;;47.00;43.00;;;;;1.90;78.58;102123.31;5076581;27;46116;-77
2022/01/13 09:04:31;;;;;;;;;39.50;35.50;;;;;1.85;78.44;102099.72;5076965;28;45380;-83
2022/01/13 09:06:56;;;;;;;;;47.25;43.75;;;;;2.07;78.04;102119.66;5076595;27;45460;-82
2022/01/13 09:09:22;;;;;;;;;50.00;43.50;;;;;1.98;77.65;102088.81;5076603;27;45352;-79
2022/01/13 09:11:48;;;;;;;;;67.75;52.75;;;;;2.22;77.58;102113.28;5075854;27;45909;-80
2022/01/13 09:14:15;;;;;;;;;24.25;23.25;;;;;2.20;77.54;102104.50;5074346;28;45400;-74
2022/01/13 09:16:43;;;;;;;;;27.25;25.75;;;;;2.37;77.30;102101.75;5075618;27;45453;-73
2022/01/13 09:19:11;;;;;;;;;21.00;15.75;;;;;2.38;76.80;102097.47;5096432;27;45408;-77
2022/01/13 09:21:39;;;;;;;;;16.25;14.50;;;;;2.38;76.92;102089.75;5095869;27;46340;-79
2022/01/13 09:24:17;;;;;;;;;11.75;10.00;;;;;2.52;76.33;102094.44;5093061;27;45525;-74
2022/01/13 09:26:43;;;;;;;;;55.25;40.50;;;;;2.64;76.05;102116.91;5096292;27;45523;-74
2022/01/13 09:29:10;;;;;;;;;56.00;42.50;;;;;2.51;76.17;102095.22;5099668;27;45510;-77
2022/01/13 09:31:38;;;;;;;;;45.00;37.75;;;;;3.53;76.31;102098.66;5100077;27;45579;-73
2022/01/13 09:34:05;;;;;;;;;32.50;29.75;;;;;6.93;69.98;102015.53;5100132;27;45485;-80
2022/01/13 09:36:32;;;;;;;;;30.25;28.00;;;;;9.89;60.60;102072.25;5100529;27;45468;-81
2022/01/13 09:38:59;;;;;;;;;41.25;33.50;;;;;11.81;53.36;102080.69;5084066;27;45511;-81
2022/01/13 09:41:29;;;;;;;;;30.75;25.25;;;;;13.47;48.58;102085.78;5092068;27;46244;-75
2022/01/13 09:43:58;;;;;;;;;26.00;22.75;;;;;14.70;45.41;102070.59;5099282;27;45377;-80
2022/01/13 09:46:26;;;;;;;;;16.25;15.00;;;;;15.64;41.83;102079.19;5094792;27;45582;-83
2022/01/13 09:48:53;;;;;;;;;18.00;17.00;;;;;16.31;39.68;102082.22;5100265;27;45524;-78
2022/01/13 09:51:22;;;;;;;;;14.50;13.00;;;;;17.00;38.66;102078.16;5100515;27;45790;-79
2022/01/13 09:53:48;;;;;;;;;15.67;14.33;;;;;17.71;37.37;102075.63;5100624;27;45333;-78
2022/01/13 09:56:13;;;;;;;;;21.00;18.33;;;;;18.19;35.77;102071.50;5098969;27;45498;-78
2022/01/13 09:58:39;;;;;;;;;34.75;32.50;;;;;18.71;34.95;102066.47;5099295;27;45558;-79
2022/01/13 10:01:05;;;;;;;;;50.50;41.00;;;;;19.11;34.03;102062.88;5100615;27;46270;-75
2022/01/13 10:03:30;;;;;;;;;37.50;32.00;;;;;19.41;33.71;102056.34;5098776;27;45583;-80
2022/01/13 10:05:59;;;;;;;;;15.33;15.00;;;;;19.75;33.63;102062.25;5099147;27;45531;-73
2022/01/13 10:08:48;;;;;;;;;19.67;19.67;;;;;20.00;32.49;102068.88;5100988;27;45329;-75
2022/01/13 10:11:41;;;;;;;;;22.00;19.00;;;;;20.20;33.06;102075.34;5100189;27;45494;-77
2022/01/13 10:16:22;;;;;;;;;17.67;17.67;;;;;20.39;33.04;102071.22;5098931;27;45290;-77
2022/01/13 10:17:05;;;;;;;;;12.00;12.00;;;;;20.52;31.18;102085.53;5099970;27;45431;-79
2022/01/13 10:19:42;;;;;;;;;11.00;10.33;;;;;20.42;32.18;102078.31;5100629;27;45490;-71
2022/01/13 10:22:11;;;;;;;;;10.67;10.67;;;;;20.56;32.06;102076.72;5097657;27;46227;-72
2022/01/13 10:24:42;;;;;;;;;15.00;13.00;;;;;20.50;31.66;102074.00;5100055;27;45468;-72
2022/01/13 10:27:11;;;;;;;;;11.00;9.33;;;;;20.53;31.88;102081.09;5096378;27;45465;-71
2022/01/13 10:29:47;;;;;;;;;13.00;12.00;;;;;20.45;31.23;102083.66;5099088;27;45516;-73
2022/01/13 10:32:24;;;;;;;;;30.00;28.50;;;;;20.45;33.02;102088.94;5098684;27;47925;-73
2022/01/13 10:34:58;;;;;;;;;33.25;29.50;;;;;20.44;32.88;102077.44;5115650;27;45466;-73
2022/01/13 10:37:33;;;;;;;;;15.67;14.67;;;;;20.42;32.41;102073.00;5100242;27;45881;-73
2022/01/13 10:40:08;;;;;;;;;18.00;16.00;;;;;20.15;32.42;102070.84;5099901;27;45439;-73
2022/01/13 10:45:14;;;;;;;;;22.00;19.33;;;;;19.95;32.90;102050.19;5099895;27;45413;-71
2022/01/13 10:47:40;;;;;;;;;15.33;13.67;;;;;19.85;33.01;102054.47;5100235;27;45419;-73
2022/01/13 10:50:09;;;;;;;;;17.33;16.00;;;;;19.64;33.29;102059.41;5100312;27;45526;-72
2022/01/13 10:52:34;;;;;;;;;13.00;11.00;;;;;19.61;32.78;102056.69;5100016;27;45463;-73
2022/01/13 10:55:03;;;;;;;;;9.00;8.67;;;;;19.52;33.65;102049.50;5099648;27;45470;-74
2022/01/13 10:57:30;;;;;;;;;9.00;9.00;;;;;19.36;33.26;102020.91;5100030;27;45375;-71
2022/01/13 10:59:56;;;;;;;;;19.00;16.00;;;;;19.26;33.56;102028.72;5098847;27;45299;-73
2022/01/13 11:02:23;;;;;;;;;19.67;19.00;;;;;19.20;33.98;102031.28;5098174;27;47250;-73
2022/01/13 11:04:49;;;;;;;;;16.00;15.00;;;;;18.95;34.44;102029.91;5098081;27;45472;-74
2022/01/13 11:07:17;;;;;;;;;21.00;16.67;;;;;18.68;34.90;102023.19;5099552;27;45317;-74
2022/01/13 11:09:58;;;;;;;;;22.25;20.25;;;;;18.44;35.91;102013.00;5099273;27;45498;-74
2022/01/13 11:12:38;;;;;;;;;24.00;21.25;;;;;18.12;36.35;102012.28;5099204;27;45490;-73
2022/01/13 11:15:07;;;;;;;;;71.75;55.75;;;;;17.57;37.25;101992.47;5099419;27;45350;-73
2022/01/13 11:17:38;;;;;;;;;74.00;60.50;;;;;16.87;37.90;102005.63;5097588;27;45442;-73
2022/01/13 11:20:10;;;;;;;;;52.25;43.00;;;;;15.92;39.71;101998.44;5099105;27;45422;-74
2022/01/13 11:22:42;;;;;;;;;41.00;34.25;;;;;14.88;41.15;101991.47;5095086;27;46433;-72
2022/01/13 11:25:13;;;;;;;;;16.50;14.25;;;;;14.04;42.96;101998.78;5098951;27;45527;-74
2022/01/13 11:27:39;;;;;;;;;16.25;13.25;;;;;13.39;44.75;101992.66;5099502;27;45522;-74
2022/01/13 11:30:09;;;;;;;;;36.50;32.50;;;;;12.89;46.66;102001.06;5098935;27;45260;-76
2022/01/13 11:32:35;;;;;;;;;24.00;21.25;;;;;12.47;48.02;101989.53;5099176;27;45474;-73
2022/01/13 11:35:02;;;;;;;;;20.75;19.75;;;;;12.02;48.49;101984.88;5099013;27;45404;-76
2022/01/13 11:37:31;;;;;;;;;16.75;15.00;;;;;11.81;49.19;101989.94;5099292;27;45525;-73
2022/01/13 11:39:58;;;;;;;;;29.25;25.00;;;;;11.66;50.07;101987.50;5098990;27;45329;-72
2022/01/13 11:42:24;;;;;;;;;14.75;14.50;;;;;11.65;49.51;101980.44;5098005;27;46176;-72
2022/01/13 11:45:10;;;;;;;;;31.75;30.50;;;;;11.61;49.88;101975.00;5098242;27;45446;-71
2022/01/13 11:47:36;;;;;;;;;14.33;12.33;;;;;11.55;49.84;101949.44;5096882;27;45586;-72